Latest Weather Observations for Mount Gambier

IDS60801

Issued at 12:02 pm CST Monday 4 May 2015 (issued every 30 minutes, with the page automatically refreshed every 10 minutes)

About weather observations | Map of weather stations | Latest weather observations for SA | Other Formats
Station Details ID: 026021 Name: MOUNT GAMBIER AERO Lat: -37.75 Lon: 140.77 Height: 63.0 m
Data from the previous 72 hours. | See also: Recent months at Mount Gambier
Date/Time
CST
Temp
°C
App
Temp
°C
Dew
Point
Rel
Hum
%
Delta-T
°C
Wind Press
QNH
hPa
Press
MSL
hPa
Rain
since 9 am
mm
Dir
 
Spd
km/h
Gust
km/h
Spd
kts
Gust
kts
04/11:00am 17.5 11.2 8.8 56 4.5 NNE 32 44 17 24 1008.6 1008.7 0.0
04/10:00am 16.2 9.6 8.6 60 3.9 N 33 43 18 23 1010.0 1010.1 0.0
04/09:00am 13.4 8.5 8.6 73 2.4 NNE 24 32 13 17 1011.2 1011.2 0.0
04/08:00am 11.1 7.0 8.0 81 1.5 NNE 19 24 10 13 1011.7 1011.7 0.0
04/07:00am 10.2 6.0 7.3 82 1.4 NNE 19 19 10 10 1012.1 1012.1 0.0
04/05:30am 10.3 6.5 7.4 82 1.4 NNE 17 20 9 11 1013.5 1013.5 0.0
04/05:00am 10.0 6.5 7.3 83 1.3 NNE 15 17 8 9 1013.6 1013.6 0.0
04/04:30am 9.2 6.1 7.1 87 1.0 N 13 15 7 8 1013.8 1013.8 0.0
04/04:00am 9.4 6.3 7.1 85 1.1 NNE 13 17 7 9 1013.6 1013.6 0.0
04/03:30am 9.4 6.3 7.1 85 1.1 NNE 13 15 7 8 1014.1 1014.1 0.0
04/03:00am 8.9 5.8 7.2 89 0.8 NNE 13 17 7 9 1014.5 1014.5 0.0
04/02:30am 8.6 5.5 7.1 90 0.7 N 13 13 7 7 1014.8 1014.8 0.0
04/02:00am 9.4 6.0 7.5 88 0.9 NNE 15 17 8 9 1014.4 1014.4 0.0
04/01:30am 9.7 6.8 8.0 89 0.8 NE 13 15 7 8 1014.4 1014.4 0.0
04/01:00am 9.8 7.3 8.4 91 0.7 NNE 11 11 6 6 1015.2 1015.2 0.0
04/12:30am 10.3 8.0 9.1 92 0.6 NE 11 11 6 6 1015.3 1015.3 0.0
04/12:00am 10.6 8.5 9.8 95 0.4 NE 11 13 6 7 1015.7 1015.7 0.0
 
Date/Time
CST
Temp
°C
App
Temp
°C
Dew
Point
Rel
Hum
%
Delta-T
°C
Wind Press
QNH
hPa
Press
MSL
hPa
Rain
since 9 am
mm
Dir
 
Spd
km/h
Gust
km/h
Spd
kts
Gust
kts
03/11:30pm 10.1 8.3 9.5 96 0.3 NE 9 11 5 6 1016.2 1016.2 0.0
03/11:00pm 11.1 9.5 10.1 94 0.5 NNE 9 11 5 6 1016.6 1016.6 0.0
03/10:30pm 11.0 9.0 10.0 93 0.5 NE 11 11 6 6 1016.9 1016.9 0.0
03/10:00pm 10.9 8.9 10.3 96 0.3 NE 11 13 6 7 1017.1 1017.1 0.0
03/09:30pm 11.1 9.5 10.3 95 0.4 NE 9 9 5 5 1017.4 1017.4 0.0
03/09:00pm 11.0 9.4 10.2 95 0.4 NE 9 11 5 6 1017.4 1017.4 0.0
03/08:30pm 10.6 8.8 9.6 93 0.5 NE 9 11 5 6 1017.4 1017.4 0.0
03/08:00pm 10.5 10.5 9.7 95 0.4 CALM 0 0 0 0 1017.7 1017.7 0.0
03/07:30pm 10.9 10.8 9.5 91 0.7 CALM 0 0 0 0 1017.9 1017.9 0.0
03/07:00pm 11.1 11.0 9.5 90 0.8 CALM 0 0 0 0 1017.9 1017.9 0.0
03/06:30pm 11.1 11.0 9.3 89 0.9 CALM 0 0 0 0 1017.8 1017.8 0.0
03/06:00pm 11.4 11.3 9.6 89 0.9 CALM 0 0 0 0 1017.7 1017.7 0.0
03/05:30pm 12.3 11.8 9.5 83 1.4 S 2 6 1 3 1017.5 1017.5 0.0
03/05:00pm 14.0 12.8 10.2 78 2.0 SSW 7 7 4 4 1017.4 1017.4 0.0
03/04:30pm 15.1 13.3 9.3 68 3.0 SW 9 11 5 6 1017.7 1017.7 0.0
03/04:00pm 16.0 13.8 9.2 64 3.5 WSW 11 13 6 7 1017.7 1017.7 0.0
03/03:30pm 16.7 14.3 8.7 59 4.1 SW 11 13 6 7 1017.8 1017.8 0.0
03/03:00pm 16.1 13.4 9.1 63 3.6 WSW 13 17 7 9 1018.1 1018.1 0.0
03/02:30pm 17.2 14.6 9.3 59 4.1 WSW 13 17 7 9 1018.2 1018.2 0.0
03/02:00pm 16.6 13.9 9.1 61 3.9 W 13 19 7 10 1018.3 1018.3 0.0
03/01:30pm 15.6 11.9 9.4 66 3.2 WSW 19 26 10 14 1018.5 1018.5 0.0
03/01:00pm 15.6 13.2 10.1 70 2.9 WSW 13 17 7 9 1018.6 1018.6 0.0
03/12:30pm 15.6 12.7 9.6 67 3.1 W 15 19 8 10 1019.0 1019.0 0.0
03/12:00pm 16.0 13.1 10.9 72 2.7 W 17 20 9 11 1019.5 1019.6 0.0
03/11:30am 13.9 10.3 10.7 81 1.7 WNW 20 26 11 14 1020.0 1020.1 0.0
03/11:00am 15.0 12.9 11.3 78 2.0 WNW 13 17 7 9 1019.9 1020.0 0.0
03/10:30am 14.4 12.2 10.8 79 1.9 WNW 13 19 7 10 1019.8 1019.9 0.0
03/10:00am 13.9 11.6 11.9 88 1.1 NW 15 17 8 9 1020.0 1020.1 0.0
03/09:30am 13.3 11.5 12.0 92 0.7 NNW 13 19 7 10 1020.2 1020.3 0.0
03/09:04am 12.6 11.2 12.2 97 0.2 NNW 11 13 6 7 1020.2 1020.3 0.0
03/09:00am 12.6 11.1 12.0 96 0.3 NNW 11 15 6 8 1020.2 1020.3 2.4
03/08:58am 12.3 10.9 12.3 100 0.0 NNW 11 15 6 8 1020.2 1020.3 2.4
03/08:30am 11.1 9.0 11.1 100 0.0 N 13 15 7 8 1020.2 1020.3 2.4
03/08:19am 11.4 9.7 11.2 99 0.1 NNE 11 13 6 7 1020.1 1020.2 2.4
03/08:10am 11.4 9.6 11.0 97 0.2 NNE 11 13 6 7 1019.9 1020.0 2.4
03/08:00am 10.5 8.9 10.3 99 0.1 N 9 11 5 6 1019.9 1020.0 2.4
03/07:58am 10.6 9.1 10.4 99 0.1 N 9 11 5 6 1019.9 1020.0 2.4
03/07:30am 10.7 9.2 10.7 100 0.0 NNW 9 13 5 7 1019.8 1019.9 2.2
03/07:11am 10.7 9.2 10.5 99 0.1 NW 9 11 5 6 1019.7 1019.8 2.2
03/07:00am 10.5 8.5 10.3 99 0.1 NNW 11 15 6 8 1019.5 1019.6 2.2
03/06:30am 9.8 7.7 9.6 99 0.1 N 11 13 6 7 1019.1 1019.2 2.2
03/06:00am 10.4 8.0 10.2 99 0.1 NNW 13 17 7 9 1018.9 1018.9 2.2
03/05:57am 10.4 8.0 10.2 99 0.1 NNW 13 17 7 9 1018.9 1018.9 2.2
03/05:45am 10.3 7.9 10.1 99 0.1 N 13 17 7 9 1019.0 1019.0 2.2
03/05:30am 10.0 7.5 9.8 99 0.1 NNW 13 17 7 9 1019.0 1019.0 2.2
03/05:28am 10.1 7.6 9.7 97 0.2 NNW 13 17 7 9 1019.0 1019.0 2.2
03/05:00am 9.5 8.0 9.3 99 0.1 N 7 9 4 5 1018.5 1018.5 2.0
03/04:30am 9.9 9.9 9.7 99 0.1 CALM 0 0 0 0 1018.0 1018.0 2.0
03/04:07am 10.0 8.7 10.0 100 0.0 NNW 7 7 4 4 1017.8 1017.8 2.0
03/04:04am 10.1 8.8 9.9 99 0.1 NNW 7 7 4 4 1017.8 1017.8 2.0
03/04:00am 10.3 9.0 9.9 97 0.2 NNW 7 7 4 4 1017.7 1017.7 2.0
03/03:37am 10.6 9.4 10.4 99 0.1 NNW 7 9 4 5 1017.9 1017.9 2.0
03/03:30am 10.7 9.6 10.5 99 0.1 NW 7 9 4 5 1018.0 1018.0 2.0
03/03:00am 11.3 10.3 11.1 99 0.1 WNW 7 9 4 5 1017.9 1017.9 2.0
03/02:42am 11.5 10.2 11.3 99 0.1 WSW 9 13 5 7 1018.0 1018.0 2.0
03/02:30am 11.9 9.9 11.5 97 0.2 WSW 13 15 7 8 1018.0 1018.0 2.0
03/02:19am 12.1 10.1 11.5 96 0.3 WNW 13 17 7 9 1018.0 1018.0 2.0
03/02:07am 12.2 10.6 11.6 96 0.3 NW 11 15 6 8 1018.1 1018.1 2.0
03/02:05am 12.2 10.2 11.6 96 0.3 NW 13 15 7 8 1018.1 1018.1 2.0
03/02:03am 12.1 10.2 11.7 97 0.2 NW 13 15 7 8 1018.1 1018.1 2.0
03/02:00am 12.1 10.2 11.7 97 0.2 NW 13 15 7 8 1018.1 1018.1 2.0
03/01:41am 12.2 10.3 11.8 97 0.2 NW 13 17 7 9 1018.2 1018.2 2.0
03/01:30am 12.3 10.4 11.7 96 0.3 NW 13 17 7 9 1018.3 1018.3 1.8
03/01:00am 12.2 10.7 11.8 97 0.2 NW 11 13 6 7 1018.2 1018.2 1.8
03/12:30am 12.3 10.0 11.9 97 0.2 NW 15 17 8 9 1018.1 1018.1 1.8
03/12:00am 12.3 10.4 11.9 97 0.2 NW 13 17 7 9 1018.1 1018.1 1.8
 
Date/Time
CST
Temp
°C
App
Temp
°C
Dew
Point
Rel
Hum
%
Delta-T
°C
Wind Press
QNH
hPa
Press
MSL
hPa
Rain
since 9 am
mm
Dir
 
Spd
km/h
Gust
km/h
Spd
kts
Gust
kts
02/11:48pm 12.4 10.6 12.0 97 0.2 NNW 13 17 7 9 1017.8 1017.8 1.8
02/11:44pm 12.5 10.2 11.9 96 0.3 NNW 15 19 8 10 1017.9 1017.9 1.8
02/11:31pm 12.5 10.3 12.1 97 0.2 NNW 15 17 8 9 1018.0 1018.0 1.8
02/11:30pm 12.5 10.2 11.9 96 0.3 NNW 15 17 8 9 1018.0 1018.0 1.8
02/11:24pm 12.5 10.6 11.9 96 0.3 NNW 13 17 7 9 1018.0 1018.0 1.8
02/11:10pm 12.3 10.8 11.9 97 0.2 NNW 11 15 6 8 1018.0 1018.0 1.8
02/11:00pm 12.5 10.3 12.1 97 0.2 NNW 15 19 8 10 1018.1 1018.1 1.8
02/10:41pm 12.5 10.6 11.9 96 0.3 NNW 13 17 7 9 1018.1 1018.1 1.6
02/10:30pm 12.5 10.6 11.9 96 0.3 NNW 13 17 7 9 1018.1 1018.1 1.6
02/10:00pm 12.6 10.4 12.0 96 0.3 NNW 15 19 8 10 1018.1 1018.1 1.6
02/09:30pm 12.3 10.4 11.7 96 0.3 NNW 13 19 7 10 1017.7 1017.7 1.6
02/09:00pm 11.9 9.5 11.5 97 0.2 NNW 15 17 8 9 1017.5 1017.5 1.6
02/08:30pm 11.4 9.2 10.8 96 0.3 NNW 13 15 7 8 1017.3 1017.3 1.6
02/08:00pm 12.4 10.8 11.6 95 0.4 NW 11 13 6 7 1017.2 1017.2 1.6
02/07:30pm 12.8 10.9 11.9 94 0.5 NW 13 13 7 7 1017.1 1017.1 1.6
02/07:00pm 13.4 12.0 12.1 92 0.7 NW 11 13 6 7 1016.8 1016.8 1.6
02/06:30pm 14.0 11.5 12.2 89 1.0 WNW 17 26 9 14 1016.4 1016.4 1.6
02/06:00pm 14.2 11.6 12.0 87 1.2 WNW 17 24 9 13 1016.1 1016.1 1.6
02/05:30pm 14.2 11.3 12.2 88 1.1 WNW 19 28 10 15 1015.5 1015.5 1.6
02/05:00pm 14.5 11.9 12.1 85 1.3 WNW 17 26 9 14 1015.3 1015.3 1.6
02/04:30pm 15.0 11.1 12.1 83 1.6 WNW 24 32 13 17 1015.2 1015.2 1.6
02/04:00pm 15.4 11.5 12.1 81 1.8 WNW 24 33 13 18 1014.9 1014.9 1.6
02/03:30pm 15.7 12.6 13.4 86 1.3 NW 22 30 12 16 1014.7 1014.7 1.6
02/03:03pm 15.4 11.3 12.7 84 1.5 NW 26 32 14 17 1014.6 1014.6 1.6
02/03:00pm 15.5 11.1 13.0 85 1.4 NW 28 35 15 19 1014.6 1014.6 1.6
02/02:40pm 14.3 8.8 12.3 88 1.1 WNW 33 57 18 31 1014.8 1014.8 1.4
02/02:30pm 15.4 9.8 11.5 77 2.1 NW 32 57 17 31 1014.7 1014.7 1.4
02/02:00pm 17.3 12.7 11.0 66 3.4 WNW 26 39 14 21 1014.3 1014.3 1.4
02/01:30pm 17.3 11.5 10.8 65 3.5 NW 32 43 17 23 1014.2 1014.2 1.4
02/01:00pm 17.3 13.6 12.6 74 2.6 NNW 24 35 13 19 1014.1 1014.1 1.4
02/12:30pm 16.9 13.3 13.2 79 2.1 NNW 24 33 13 18 1014.1 1014.1 1.4
02/12:00pm 15.7 11.2 12.6 82 1.7 NNW 28 46 15 25 1014.7 1014.7 1.4
02/11:57am 15.8 11.5 13.1 84 1.5 NNW 28 46 15 25 1014.8 1014.8 1.4
02/11:41am 14.7 11.6 13.3 91 0.8 NNW 22 32 12 17 1015.0 1015.0 1.4
02/11:30am 13.9 9.5 12.8 93 0.6 NNW 28 35 15 19 1015.2 1015.2 1.4
02/11:14am 13.9 9.7 12.4 91 0.8 WNW 26 39 14 21 1015.4 1015.4 1.0
02/11:00am 14.2 10.9 12.9 92 0.7 NW 22 30 12 16 1015.3 1015.3 0.6
02/10:30am 13.4 9.6 12.3 93 0.6 WNW 24 35 13 19 1015.4 1015.4 0.4
02/10:29am 13.4 9.6 12.3 93 0.6 WNW 24 35 13 19 1015.4 1015.4 0.4
02/10:05am 13.6 8.9 11.9 89 0.9 WNW 28 46 15 25 1015.5 1015.5 0.2
02/10:00am 15.4 10.2 10.3 71 2.7 NW 28 44 15 24 1015.3 1015.3 0.0
02/09:30am 16.8 10.3 9.1 60 4.0 NNW 33 52 18 28 1014.8 1014.8 0.0
02/09:26am 17.0 11.2 9.3 60 4.0 NNW 30 48 16 26 1014.8 1014.8 0.0
02/09:00am 16.5 11.1 9.6 63 3.6 NNW 28 37 15 20 1014.7 1014.7 0.2
02/08:30am 15.5 11.9 9.7 68 3.0 N 19 28 10 15 1014.6 1014.6 0.2
02/08:00am 14.6 11.0 9.8 73 2.5 N 19 28 10 15 1014.7 1014.7 0.2
02/07:30am 14.3 10.7 9.9 75 2.3 N 19 32 10 17 1014.9 1014.9 0.2
02/07:00am 14.0 10.7 10.8 81 1.7 N 19 24 10 13 1014.5 1014.5 0.2
02/06:30am 13.7 10.4 10.9 83 1.5 N 19 24 10 13 1014.5 1014.5 0.2
02/06:00am 13.8 11.0 11.4 85 1.3 N 17 28 9 15 1014.7 1014.7 0.2
02/05:30am 14.7 11.7 10.5 76 2.2 N 17 24 9 13 1014.7 1014.7 0.0
02/05:00am 15.6 11.9 9.6 67 3.1 NNW 19 28 10 15 1014.4 1014.4 0.0
02/04:30am 16.1 12.3 9.1 63 3.6 N 19 28 10 15 1014.2 1014.2 0.0
02/04:00am 16.3 12.5 8.9 61 3.8 N 19 32 10 17 1014.1 1014.1 0.0
02/03:30am 16.3 12.5 8.9 61 3.8 N 19 26 10 14 1014.1 1014.1 0.0
02/03:00am 16.3 12.3 9.2 63 3.7 N 20 28 11 15 1014.4 1014.4 0.0
02/02:30am 16.5 12.5 8.9 61 3.9 N 20 28 11 15 1014.8 1014.8 0.0
02/02:00am 16.6 11.8 8.8 60 4.0 N 24 32 13 17 1014.9 1014.9 0.0
02/01:30am 16.5 11.7 8.9 61 3.9 N 24 32 13 17 1015.0 1015.0 0.0
02/01:00am 16.7 12.6 8.7 59 4.1 N 20 30 11 16 1015.3 1015.3 0.0
02/12:30am 17.0 12.9 8.6 57 4.3 N 20 32 11 17 1015.4 1015.4 0.0
02/12:00am 17.1 12.6 8.5 57 4.4 N 22 33 12 18 1015.4 1015.4 0.0
 
Date/Time
CST
Temp
°C
App
Temp
°C
Dew
Point
Rel
Hum
%
Delta-T
°C
Wind Press
QNH
hPa
Press
MSL
hPa
Rain
since 9 am
mm
Dir
 
Spd
km/h
Gust
km/h
Spd
kts
Gust
kts
01/11:30pm 16.7 13.1 8.3 57 4.3 N 17 26 9 14 1016.0 1016.0 0.0
01/11:00pm 16.2 12.9 7.9 58 4.2 N 15 19 8 10 1016.3 1016.3 0.0
01/10:30pm 16.1 12.8 8.0 58 4.1 N 15 20 8 11 1016.9 1016.9 0.0
01/10:00pm 16.1 12.8 8.2 59 4.0 N 15 20 8 11 1017.6 1017.6 0.0
01/09:30pm 15.5 12.8 8.9 65 3.4 N 13 17 7 9 1017.8 1017.8 0.0
01/09:00pm 14.3 12.1 9.4 72 2.5 NNW 11 13 6 7 1017.8 1017.8 0.0
01/08:30pm 14.2 13.6 10.4 78 2.0 NE 4 9 2 5 1017.6 1017.6 0.0
01/08:00pm 14.2 14.0 10.6 79 1.9 WSW 2 13 1 7 1018.1 1018.1 0.0
01/07:30pm 14.4 14.6 10.6 78 2.0 CALM 0 0 0 0 1018.3 1018.3 0.0
01/07:00pm 15.4 15.3 9.6 68 3.0 CALM 0 0 0 0 1018.2 1018.2 0.0
01/06:30pm 15.6 14.2 9.4 66 3.2 NNE 7 7 4 4 1018.5 1018.5 0.0
01/06:00pm 16.8 14.8 8.8 59 4.1 NNE 9 9 5 5 1018.5 1018.5 0.0
01/05:30pm 17.7 15.7 8.6 55 4.7 N 9 9 5 5 1018.6 1018.6 0.0
01/05:00pm 18.7 16.7 8.5 51 5.3 N 9 13 5 7 1018.7 1018.7 0.0
01/04:30pm 19.3 16.6 9.0 51 5.4 N 13 17 7 9 1018.6 1018.6 0.0
01/04:00pm 20.2 17.3 9.7 51 5.6 N 15 22 8 12 1019.0 1019.0 0.0
01/03:30pm 21.4 18.2 8.5 43 6.8 NNW 15 20 8 11 1019.9 1020.0 0.0
01/03:00pm 21.5 18.1 9.3 45 6.5 NNW 17 20 9 11 1020.3 1020.4 0.0
01/02:30pm 21.0 17.9 8.7 45 6.5 N 15 22 8 12 1020.1 1020.2 0.0
01/02:00pm 20.8 16.3 8.6 45 6.4 N 22 28 12 15 1020.3 1020.4 0.0
01/01:30pm 21.0 17.0 8.2 43 6.7 N 19 33 10 18 1020.5 1020.6 0.0
01/01:00pm 21.0 17.0 8.9 46 6.4 N 20 32 11 17 1020.8 1020.9 0.0
01/12:30pm 21.1 17.3 9.0 46 6.4 NNE 19 32 10 17 1021.3 1021.4 0.0

Other Formats:

Comma delimited format used in spreadsheet applications
http://www.bom.gov.au/fwo/IDS60801/IDS60801.94821.axf

JavaScript Object Notation format (JSON) in row-major order
http://www.bom.gov.au/fwo/IDS60801/IDS60801.94821.json